createdAt,value
2023-07-23T00:01:36.788Z,64.67
2023-07-23T00:04:09.710Z,64.77
2023-07-23T00:06:42.404Z,65.11
2023-07-23T00:09:15.312Z,65.40
2023-07-23T00:11:47.833Z,65.20
2023-07-23T00:14:22.529Z,65.19
2023-07-23T00:16:55.442Z,65.36
2023-07-23T00:19:28.444Z,65.35
2023-07-23T00:22:01.382Z,65.27
2023-07-23T00:24:34.674Z,65.80
2023-07-23T00:27:07.380Z,65.63
2023-07-23T00:29:41.808Z,65.62
2023-07-23T00:32:14.567Z,65.38
2023-07-23T00:34:47.813Z,65.78
2023-07-23T00:37:20.411Z,65.71
2023-07-23T00:39:53.622Z,65.82
2023-07-23T00:42:26.267Z,66.02
2023-07-23T00:45:01.254Z,65.92
2023-07-23T00:47:35.463Z,65.85
2023-07-23T00:50:09.742Z,65.71
2023-07-23T00:52:43.432Z,66.01
2023-07-23T00:55:16.653Z,66.21
2023-07-23T00:57:49.340Z,66.22
2023-07-23T01:00:23.774Z,66.03
2023-07-23T01:02:57.267Z,66.24
2023-07-23T01:05:31.331Z,66.39
2023-07-23T01:08:06.229Z,66.10
2023-07-23T01:10:39.540Z,66.31
2023-07-23T01:13:12.641Z,66.51
2023-07-23T01:15:47.804Z,66.65
2023-07-23T01:18:21.936Z,66.65
2023-07-23T01:20:55.296Z,66.55
2023-07-23T01:23:29.278Z,66.37
2023-07-23T01:26:02.674Z,66.33
2023-07-23T01:28:35.925Z,66.65
2023-07-23T01:31:09.089Z,66.61
2023-07-23T01:33:42.377Z,66.89
2023-07-23T01:36:16.470Z,66.97
2023-07-23T01:38:51.149Z,66.70
2023-07-23T01:41:23.810Z,66.37
2023-07-23T01:43:57.380Z,66.94
2023-07-23T01:46:30.002Z,66.71
2023-07-23T01:49:05.099Z,66.97
2023-07-23T01:51:39.193Z,66.76
2023-07-23T01:54:13.877Z,67.04
2023-07-23T01:56:47.198Z,66.91
2023-07-23T01:59:20.695Z,67.01
2023-07-23T02:01:53.291Z,67.30
2023-07-23T02:04:26.952Z,67.28
2023-07-23T02:06:59.486Z,67.55
2023-07-23T02:09:34.207Z,68.03
2023-07-23T02:12:07.951Z,67.68
2023-07-23T02:14:40.891Z,67.73
2023-07-23T02:17:13.886Z,67.50
2023-07-23T02:19:50.080Z,67.39
2023-07-23T02:22:23.104Z,67.55
2023-07-23T02:24:57.624Z,67.58
2023-07-23T02:27:30.655Z,67.64
2023-07-23T02:30:05.622Z,68.00
2023-07-23T02:32:38.473Z,67.56
2023-07-23T02:35:12.089Z,67.65
2023-07-23T02:37:44.809Z,68.09
2023-07-23T02:40:19.636Z,67.83
2023-07-23T02:42:52.078Z,68.16
2023-07-23T02:45:25.499Z,68.04
2023-07-23T02:47:58.554Z,68.27
2023-07-23T02:50:31.197Z,68.44
2023-07-23T02:53:04.543Z,68.02
2023-07-23T02:55:38.547Z,68.06
2023-07-23T02:58:11.676Z,68.11
2023-07-23T03:00:45.994Z,68.16
2023-07-23T03:03:19.192Z,67.92
2023-07-23T03:05:52.258Z,67.96
2023-07-23T03:08:25.552Z,67.94
2023-07-23T03:11:00.210Z,68.06
2023-07-23T03:13:33.006Z,68.09
2023-07-23T03:16:07.523Z,67.79
2023-07-23T03:18:40.526Z,67.88
2023-07-23T03:21:13.303Z,67.88
2023-07-23T03:23:46.421Z,67.79
2023-07-23T03:26:21.005Z,67.97
2023-07-23T03:28:54.071Z,67.79
2023-07-23T03:31:27.370Z,67.36
2023-07-23T03:33:59.966Z,67.56
2023-07-23T03:36:33.207Z,67.31
2023-07-23T03:39:05.799Z,67.65
2023-07-23T03:41:40.433Z,67.89
2023-07-23T03:44:12.957Z,67.47
2023-07-23T03:46:47.505Z,67.60
2023-07-23T03:49:20.235Z,67.75
2023-07-23T03:51:53.476Z,68.05
2023-07-23T03:54:26.550Z,67.75
2023-07-23T03:57:01.504Z,67.82
2023-07-23T03:59:37.059Z,67.68
2023-07-23T04:02:10.362Z,67.29
2023-07-23T04:04:44.004Z,67.24
2023-07-23T04:07:17.002Z,67.28
2023-07-23T04:09:49.958Z,67.51
2023-07-23T04:12:24.540Z,67.37
2023-07-23T04:14:59.129Z,67.47
2023-07-23T04:17:33.454Z,67.43
2023-07-23T04:20:08.111Z,67.38
2023-07-23T04:22:40.818Z,67.60
2023-07-23T04:25:14.366Z,67.46
2023-07-23T04:27:48.401Z,67.48
2023-07-23T04:30:21.652Z,67.39
2023-07-23T04:32:54.208Z,67.65
2023-07-23T04:35:27.364Z,67.75
2023-07-23T04:38:00.486Z,67.59
2023-07-23T04:40:35.941Z,67.58
2023-07-23T04:43:10.097Z,67.72
2023-07-23T04:45:42.927Z,67.57
2023-07-23T04:48:17.612Z,67.60
2023-07-23T04:50:56.871Z,67.26
2023-07-23T04:53:30.081Z,67.80
2023-07-23T04:56:05.063Z,67.68
2023-07-23T04:58:39.542Z,68.03
2023-07-23T05:01:13.704Z,67.44
2023-07-23T05:03:46.629Z,67.51
2023-07-23T05:06:19.660Z,67.38
2023-07-23T05:08:53.633Z,67.21
2023-07-23T05:11:26.685Z,67.46
2023-07-23T05:14:01.322Z,67.47
2023-07-23T05:16:33.945Z,67.27
2023-07-23T05:19:06.568Z,67.40
2023-07-23T05:21:39.497Z,67.70
2023-07-23T05:24:12.145Z,67.34
2023-07-23T05:26:45.186Z,67.40
2023-07-23T05:29:19.083Z,66.88
2023-07-23T05:31:52.335Z,66.87
2023-07-23T05:34:24.996Z,67.05
2023-07-23T05:36:57.851Z,67.03
2023-07-23T05:39:30.721Z,66.96
2023-07-23T05:42:04.252Z,66.55
2023-07-23T05:44:38.158Z,66.62
2023-07-23T05:47:11.107Z,66.87
2023-07-23T05:49:43.904Z,66.64
2023-07-23T05:52:17.302Z,66.26
2023-07-23T05:54:50.000Z,66.04
2023-07-23T05:57:22.706Z,65.63
2023-07-23T05:59:57.345Z,65.25
2023-07-23T06:02:29.877Z,64.88
2023-07-23T06:05:03.910Z,64.45
2023-07-23T06:07:39.415Z,64.30
2023-07-23T06:10:12.090Z,63.70
2023-07-23T06:12:44.720Z,63.66
2023-07-23T06:15:19.541Z,63.68
2023-07-23T06:17:52.195Z,63.52
2023-07-23T06:20:27.186Z,63.78
2023-07-23T06:23:01.741Z,63.55
2023-07-23T06:25:34.683Z,64.17
2023-07-23T06:28:08.161Z,63.99
2023-07-23T06:30:42.141Z,64.31
2023-07-23T06:33:15.531Z,64.07
2023-07-23T06:35:49.328Z,64.12
2023-07-23T06:38:22.253Z,64.35
2023-07-23T06:40:56.486Z,63.93
2023-07-23T06:43:28.963Z,64.17
2023-07-23T06:46:03.397Z,63.83
2023-07-23T06:48:36.021Z,63.73
2023-07-23T06:51:08.870Z,63.84
2023-07-23T06:53:42.562Z,64.22
2023-07-23T06:56:15.135Z,64.08
2023-07-23T06:58:48.770Z,64.10
2023-07-23T07:01:23.875Z,64.40
2023-07-23T07:03:58.018Z,63.88
2023-07-23T07:06:32.245Z,64.03
2023-07-23T07:09:05.107Z,64.22
2023-07-23T07:11:37.987Z,64.21
2023-07-23T07:14:11.148Z,63.95
2023-07-23T07:16:45.061Z,63.39
2023-07-23T07:19:18.705Z,62.98
2023-07-23T07:21:52.220Z,63.07
2023-07-23T07:24:25.497Z,63.06
2023-07-23T07:26:58.060Z,62.44
2023-07-23T07:29:31.435Z,62.67
2023-07-23T07:32:06.469Z,62.66
2023-07-23T07:34:41.663Z,62.23
2023-07-23T07:37:14.629Z,62.23
2023-07-23T07:39:47.533Z,61.88
2023-07-23T07:42:21.192Z,61.78
2023-07-23T07:44:54.084Z,61.52
2023-07-23T07:47:28.061Z,62.05
2023-07-23T07:50:00.978Z,61.44
2023-07-23T07:52:36.008Z,61.10
2023-07-23T07:55:09.521Z,60.53
2023-07-23T07:57:43.259Z,60.46
2023-07-23T08:00:16.559Z,60.41
2023-07-23T08:02:51.568Z,60.37
2023-07-23T08:05:25.252Z,60.26
2023-07-23T08:08:00.523Z,60.63
2023-07-23T08:10:35.414Z,60.33
2023-07-23T08:13:10.954Z,60.11
2023-07-23T08:15:44.096Z,59.51
2023-07-23T08:18:19.336Z,59.40
2023-07-23T08:20:52.795Z,59.37
2023-07-23T08:23:29.616Z,59.10
2023-07-23T08:26:04.332Z,59.07
2023-07-23T08:28:40.460Z,59.41
2023-07-23T08:31:15.622Z,59.46
2023-07-23T08:33:51.632Z,58.25
2023-07-23T08:36:24.652Z,58.30
2023-07-23T08:38:58.579Z,58.12
2023-07-23T08:41:37.555Z,58.62
2023-07-23T08:44:27.192Z,58.92
2023-07-23T08:47:11.634Z,59.04
2023-07-23T08:49:46.488Z,58.19
2023-07-23T08:52:21.670Z,58.00
2023-07-23T08:54:54.738Z,57.64
2023-07-23T08:57:28.441Z,57.41
2023-07-23T09:00:02.380Z,58.26
2023-07-23T09:02:41.561Z,58.13
2023-07-23T09:05:15.899Z,58.46
2023-07-23T09:07:50.327Z,57.26
2023-07-23T09:10:22.919Z,57.40
2023-07-23T09:12:55.776Z,57.07
2023-07-23T09:15:28.597Z,57.08
2023-07-23T09:18:01.788Z,57.35
2023-07-23T09:20:35.888Z,57.59
2023-07-23T09:23:09.537Z,56.99
2023-07-23T09:25:45.486Z,56.96
2023-07-23T09:28:22.977Z,56.64
2023-07-23T09:30:56.207Z,56.84
2023-07-23T09:33:34.415Z,56.80
2023-07-23T09:36:08.473Z,56.11
2023-07-23T09:38:47.352Z,55.94
2023-07-23T09:41:20.729Z,55.94
2023-07-23T09:43:53.846Z,54.98
2023-07-23T09:46:27.239Z,55.77
2023-07-23T09:49:00.270Z,56.33
2023-07-23T09:51:35.471Z,55.32
2023-07-23T09:54:08.094Z,54.39
2023-07-23T09:56:43.227Z,54.79
2023-07-23T09:59:16.468Z,55.37
2023-07-23T10:01:50.229Z,54.54
2023-07-23T10:04:24.248Z,54.02
2023-07-23T10:06:58.935Z,54.06
2023-07-23T10:09:33.332Z,53.62
2023-07-23T10:12:07.250Z,54.04
2023-07-23T10:14:40.406Z,54.06
2023-07-23T10:17:13.193Z,53.68
2023-07-23T10:19:47.751Z,53.50
2023-07-23T10:22:23.653Z,53.98
2023-07-23T10:24:56.680Z,54.20
2023-07-23T10:27:31.647Z,53.62
2023-07-23T10:30:18.904Z,54.83
2023-07-23T10:33:29.414Z,55.50
2023-07-23T10:36:04.171Z,54.71
2023-07-23T10:38:40.046Z,55.03
2023-07-23T10:41:12.858Z,54.67
2023-07-23T10:43:47.042Z,54.63
2023-07-23T10:46:21.379Z,54.57
2023-07-23T10:48:57.005Z,54.68
2023-07-23T10:51:30.048Z,54.56
2023-07-23T10:54:07.750Z,55.05
2023-07-23T10:56:41.930Z,55.01
2023-07-23T10:59:16.458Z,55.91
2023-07-23T11:01:51.610Z,56.09
2023-07-23T11:04:27.411Z,57.41
2023-07-23T11:07:01.885Z,57.67
2023-07-23T11:09:38.927Z,58.10
2023-07-23T11:12:12.318Z,58.38
2023-07-23T11:14:46.584Z,57.64
2023-07-23T11:17:19.419Z,57.05
2023-07-23T11:19:52.771Z,57.43
2023-07-23T11:22:25.357Z,58.06
2023-07-23T11:25:00.030Z,58.53
2023-07-23T11:27:32.717Z,58.64
2023-07-23T11:30:07.319Z,58.64
2023-07-23T11:32:40.067Z,59.19
2023-07-23T11:35:13.328Z,59.90
2023-07-23T11:37:50.804Z,60.62
2023-07-23T11:40:25.427Z,61.96
2023-07-23T11:43:04.926Z,63.67
2023-07-23T11:45:43.895Z,64.80
2023-07-23T11:48:18.147Z,65.04
2023-07-23T11:50:53.314Z,66.23
2023-07-23T11:53:34.472Z,66.79
2023-07-23T11:56:09.998Z,68.03
2023-07-23T11:58:43.261Z,68.29
2023-07-23T12:01:17.747Z,69.38
2023-07-23T12:03:50.386Z,69.78
2023-07-23T12:06:23.588Z,70.18
2023-07-23T12:08:56.225Z,70.67
2023-07-23T12:11:32.329Z,70.58
2023-07-23T12:14:08.229Z,70.82
2023-07-23T12:16:42.916Z,70.60
2023-07-23T12:19:18.090Z,70.40
2023-07-23T12:21:54.585Z,69.89
2023-07-23T12:24:29.393Z,70.06
2023-07-23T12:27:04.637Z,70.56
2023-07-23T12:29:44.869Z,70.44
2023-07-23T12:32:20.906Z,70.62
2023-07-23T12:34:54.297Z,69.99
2023-07-23T12:37:26.992Z,70.69
2023-07-23T12:40:00.342Z,70.75
2023-07-23T12:42:34.570Z,70.75
2023-07-23T12:45:08.830Z,71.18
2023-07-23T12:47:41.486Z,71.00
2023-07-23T12:50:14.545Z,70.74
2023-07-23T12:52:47.362Z,70.78
2023-07-23T12:55:20.633Z,71.22
2023-07-23T12:57:54.633Z,70.93
2023-07-23T13:00:27.812Z,70.84
2023-07-23T13:03:00.474Z,71.23
2023-07-23T13:05:35.187Z,70.99
2023-07-23T13:08:08.029Z,71.15
2023-07-23T13:10:41.488Z,71.27
2023-07-23T13:13:15.493Z,71.53
2023-07-23T13:15:48.911Z,71.50
2023-07-23T13:18:21.816Z,71.24
2023-07-23T13:20:54.792Z,71.47
2023-07-23T13:23:28.381Z,71.48
2023-07-23T13:26:01.799Z,71.93
2023-07-23T13:28:36.420Z,71.76
2023-07-23T13:31:09.279Z,71.92
2023-07-23T13:33:42.391Z,71.39
2023-07-23T13:36:16.604Z,71.68
2023-07-23T13:38:49.988Z,71.50
2023-07-23T13:41:23.139Z,71.71
2023-07-23T13:43:58.920Z,71.30
2023-07-23T13:46:33.893Z,71.37
2023-07-23T13:49:11.575Z,71.30
2023-07-23T13:51:45.134Z,71.05
2023-07-23T13:54:18.085Z,71.53
2023-07-23T13:56:51.033Z,70.97
2023-07-23T13:59:32.554Z,71.00
2023-07-23T14:02:05.317Z,70.78
2023-07-23T14:04:38.245Z,71.05
2023-07-23T14:07:11.210Z,71.04
2023-07-23T14:09:44.265Z,70.93
2023-07-23T14:12:17.159Z,71.28
2023-07-23T14:14:51.120Z,70.26
2023-07-23T14:17:24.115Z,70.10
2023-07-23T14:19:57.724Z,69.54
2023-07-23T14:22:30.303Z,69.52
2023-07-23T14:25:03.198Z,69.33
2023-07-23T14:27:37.027Z,69.62
2023-07-23T14:30:12.807Z,69.07
2023-07-23T14:32:45.614Z,68.85
2023-07-23T14:35:19.090Z,69.00
2023-07-23T14:37:51.930Z,69.10
2023-07-23T14:40:24.936Z,69.12
2023-07-23T14:42:57.985Z,69.38
2023-07-23T14:45:32.186Z,69.00
2023-07-23T14:48:06.060Z,69.50
2023-07-23T14:50:38.978Z,68.22
2023-07-23T14:53:12.123Z,67.09
2023-07-23T14:55:45.178Z,67.05
2023-07-23T14:58:17.726Z,67.00
2023-07-23T15:00:52.155Z,66.93
2023-07-23T15:03:26.725Z,67.66
2023-07-23T15:05:59.792Z,67.04
2023-07-23T15:08:32.602Z,66.54
2023-07-23T15:11:05.800Z,66.30
2023-07-23T15:13:38.940Z,66.50
2023-07-23T15:16:13.666Z,66.32
2023-07-23T15:18:46.880Z,66.65
2023-07-23T15:21:20.671Z,66.75
2023-07-23T15:23:54.009Z,67.27
2023-07-23T15:26:29.264Z,66.04
2023-07-23T15:29:03.465Z,66.23
2023-07-23T15:31:38.113Z,65.61
2023-07-23T15:34:11.144Z,64.96
2023-07-23T15:36:43.705Z,65.29
2023-07-23T15:39:16.374Z,65.25
2023-07-23T15:41:50.126Z,65.09
2023-07-23T15:44:24.640Z,64.98
2023-07-23T15:46:59.079Z,65.38
2023-07-23T15:49:32.057Z,65.50
2023-07-23T15:52:05.260Z,64.55
2023-07-23T15:54:38.449Z,64.68
2023-07-23T15:57:10.997Z,64.26
2023-07-23T15:59:43.945Z,64.32
2023-07-23T16:02:17.928Z,64.25
2023-07-23T16:04:50.944Z,64.93
2023-07-23T16:07:23.601Z,65.27
2023-07-23T16:09:56.790Z,65.87
2023-07-23T16:12:29.362Z,66.13
2023-07-23T16:15:03.001Z,65.49
2023-07-23T16:17:41.230Z,65.78
2023-07-23T16:20:14.471Z,66.44
2023-07-23T16:22:47.129Z,65.90
2023-07-23T16:25:20.411Z,66.04
2023-07-23T16:27:53.663Z,65.75
2023-07-23T16:30:26.902Z,66.58
2023-07-23T16:33:01.670Z,66.52
2023-07-23T16:35:35.179Z,66.54
2023-07-23T16:38:12.356Z,66.90
2023-07-23T16:40:47.709Z,67.41
2023-07-23T16:43:21.861Z,67.49
2023-07-23T16:45:56.732Z,67.50
2023-07-23T16:48:31.320Z,67.84
2023-07-23T16:51:05.128Z,67.78
2023-07-23T16:53:37.653Z,67.12
2023-07-23T16:56:10.911Z,67.83
2023-07-23T16:58:45.975Z,67.73
2023-07-23T17:01:19.404Z,68.38
2023-07-23T17:03:54.292Z,68.61
2023-07-23T17:06:27.247Z,68.37
2023-07-23T17:09:00.955Z,68.32
2023-07-23T17:11:33.591Z,68.74
2023-07-23T17:14:06.891Z,69.09
2023-07-23T17:16:40.465Z,69.23
2023-07-23T17:19:16.686Z,69.15
2023-07-23T17:21:49.674Z,69.59
2023-07-23T17:24:22.914Z,69.25
2023-07-23T17:26:55.584Z,69.54
2023-07-23T17:29:29.128Z,69.59
2023-07-23T17:32:02.077Z,69.68
2023-07-23T17:34:36.177Z,70.17
2023-07-23T17:37:09.363Z,70.20
2023-07-23T17:39:41.917Z,70.50
2023-07-23T17:42:14.865Z,70.70
2023-07-23T17:44:47.663Z,70.83
2023-07-23T17:47:21.002Z,70.69
2023-07-23T17:49:54.939Z,71.00
2023-07-23T17:52:28.711Z,70.93
2023-07-23T17:55:01.218Z,71.44
2023-07-23T17:57:34.365Z,71.51
2023-07-23T18:00:08.349Z,71.49
2023-07-23T18:02:45.122Z,71.69
2023-07-23T18:05:19.354Z,72.31
2023-07-23T18:07:52.533Z,72.00
2023-07-23T18:10:26.930Z,72.35
2023-07-23T18:13:00.298Z,72.01
2023-07-23T18:15:37.731Z,72.35
2023-07-23T18:18:30.075Z,72.68
2023-07-23T18:21:05.295Z,72.71
2023-07-23T18:23:38.780Z,72.90
2023-07-23T18:26:11.393Z,73.20
2023-07-23T18:28:44.672Z,72.75
2023-07-23T18:31:34.611Z,73.04
2023-07-23T18:34:08.614Z,73.18
2023-07-23T18:36:43.135Z,73.36
2023-07-23T18:39:16.081Z,73.59
2023-07-23T18:41:48.649Z,73.45
2023-07-23T18:44:21.996Z,73.74
2023-07-23T18:46:54.632Z,74.03
2023-07-23T18:49:27.926Z,74.02
2023-07-23T18:52:02.425Z,74.11
2023-07-23T18:54:35.403Z,73.95
2023-07-23T18:57:09.121Z,73.87
2023-07-23T18:59:41.912Z,73.85
2023-07-23T19:02:15.169Z,74.02
2023-07-23T19:04:47.744Z,73.36
2023-07-23T19:07:22.576Z,73.62
2023-07-23T19:09:56.070Z,73.83
2023-07-23T19:12:31.135Z,73.70
2023-07-23T19:15:03.921Z,73.75
2023-07-23T19:17:39.259Z,73.42
2023-07-23T19:20:12.252Z,73.47
2023-07-23T19:22:47.182Z,73.41
2023-07-23T19:25:20.001Z,73.69
2023-07-23T19:27:54.908Z,74.01
2023-07-23T19:30:27.870Z,74.05
2023-07-23T19:33:01.198Z,74.14
2023-07-23T19:35:34.549Z,74.36
2023-07-23T19:38:08.563Z,74.61
2023-07-23T19:40:41.833Z,74.95
2023-07-23T19:43:14.430Z,74.77
2023-07-23T19:45:47.341Z,74.66
2023-07-23T19:48:19.947Z,74.75
2023-07-23T19:50:53.266Z,74.71
2023-07-23T19:53:28.085Z,74.70
2023-07-23T19:56:01.117Z,74.45
2023-07-23T19:58:33.889Z,74.52
2023-07-23T20:01:07.609Z,74.31
2023-07-23T20:03:40.497Z,74.40
2023-07-23T20:06:13.531Z,74.23
2023-07-23T20:08:47.819Z,74.06
2023-07-23T20:11:20.997Z,74.12
2023-07-23T20:13:53.993Z,74.00
2023-07-23T20:16:27.411Z,73.89
2023-07-23T20:19:00.308Z,74.22
2023-07-23T20:21:44.017Z,74.03
2023-07-23T20:24:20.387Z,74.32
2023-07-23T20:26:53.590Z,74.29
2023-07-23T20:29:27.167Z,74.06
2023-07-23T20:32:00.260Z,74.29
2023-07-23T20:34:34.203Z,74.33
2023-07-23T20:37:07.772Z,73.90
2023-07-23T20:39:44.550Z,73.95
2023-07-23T20:42:17.886Z,73.87
2023-07-23T20:44:51.145Z,73.71
2023-07-23T20:47:23.879Z,73.54
2023-07-23T20:49:57.204Z,73.49
2023-07-23T20:52:31.038Z,73.52
2023-07-23T20:55:06.330Z,74.06
2023-07-23T20:57:39.936Z,74.39
2023-07-23T21:00:13.344Z,74.26
2023-07-23T21:02:46.572Z,74.55
2023-07-23T21:05:19.747Z,74.77
2023-07-23T21:07:53.136Z,74.93
2023-07-23T21:10:27.133Z,74.89
2023-07-23T21:13:00.268Z,74.85
2023-07-23T21:15:33.430Z,75.07
2023-07-23T21:18:06.557Z,74.77
2023-07-23T21:20:39.408Z,74.61
2023-07-23T21:23:13.021Z,74.93
2023-07-23T21:25:47.000Z,74.42
2023-07-23T21:28:20.408Z,74.36
2023-07-23T21:30:53.543Z,74.45
2023-07-23T21:33:26.371Z,74.23
2023-07-23T21:35:59.594Z,74.23
2023-07-23T21:38:32.888Z,74.53
2023-07-23T21:41:09.081Z,74.36
2023-07-23T21:43:41.972Z,74.41
2023-07-23T21:46:14.978Z,74.61
2023-07-23T21:48:47.781Z,74.70
2023-07-23T21:51:20.724Z,74.59
2023-07-23T21:53:53.669Z,74.60
2023-07-23T21:56:28.641Z,74.48
2023-07-23T21:59:01.382Z,74.37
2023-07-23T22:01:34.299Z,74.55
2023-07-23T22:04:07.506Z,74.62
2023-07-23T22:06:40.142Z,74.84
2023-07-23T22:09:14.254Z,74.97
2023-07-23T22:11:48.883Z,74.76
2023-07-23T22:14:21.701Z,74.69
2023-07-23T22:16:55.668Z,74.87
2023-07-23T22:19:28.257Z,74.56
2023-07-23T22:22:00.828Z,74.49
2023-07-23T22:24:33.817Z,74.78
2023-07-23T22:27:08.324Z,74.90
2023-07-23T22:29:41.104Z,74.94
2023-07-23T22:32:14.151Z,75.20
2023-07-23T22:34:47.942Z,75.36
2023-07-23T22:37:21.285Z,75.10
2023-07-23T22:39:54.398Z,75.27
2023-07-23T22:42:28.694Z,75.32
2023-07-23T22:45:01.239Z,74.78
2023-07-23T22:47:37.676Z,74.74
2023-07-23T22:50:10.832Z,74.70
2023-07-23T22:55:18.171Z,74.63
2023-07-23T22:57:54.136Z,74.56
2023-07-23T23:00:26.790Z,74.60
2023-07-23T23:03:00.291Z,74.78
2023-07-23T23:05:33.737Z,74.66
2023-07-23T23:08:06.918Z,74.56
2023-07-23T23:10:39.570Z,74.35
2023-07-23T23:13:14.082Z,74.85
2023-07-23T23:15:47.191Z,74.88
2023-07-23T23:18:19.842Z,75.17
2023-07-23T23:20:52.967Z,75.17
2023-07-23T23:23:25.575Z,75.33
2023-07-23T23:25:59.545Z,75.31
2023-07-23T23:28:35.223Z,75.20
2023-07-23T23:31:08.147Z,75.08
2023-07-23T23:33:40.943Z,75.09
2023-07-23T23:36:14.003Z,75.12
2023-07-23T23:38:47.278Z,75.29
2023-07-23T23:41:20.120Z,75.15
2023-07-23T23:43:54.079Z,75.16
2023-07-23T23:46:27.357Z,75.09
2023-07-23T23:49:00.394Z,74.85
2023-07-23T23:51:33.432Z,74.86
2023-07-23T23:54:06.710Z,75.22
2023-07-23T23:56:45.677Z,74.96
2023-07-23T23:59:26.865Z,74.67
